Decoded Metar for NZCH (CHRISTCHURCH in NEW ZEALAND) (IATA:CHC) | Meteo·Mobile Aviation Weather
aviador You're here:

NZCH Decoded Metar

CHRISTCHURCH in NEW ZEALAND
Report Time2018-10-19 08:00:00
UTC Time2018-10-19 08:37:43
Flight Rules vfr VFR
Wind040° at 05 kt
W.Decomp.*RWY 02: 5.0 kt HW 0.3 kt LCW
RWY 29: 0.3 kt HW 5.0 kt RCW
W.Rank040° ranks 5
Current wind is below 040° avg. (6.1)
Visibility9999 m
Phenomena:N/A
Clouds:N/A
Expected CloudBase > 1,600 ft AGL from Temp-Dew spread
CeilingNone
Temp13°C (ISA -2)
Dew Point09°C (77% RH)
AAT11.0°C
QNH1020 hPa
Density Alt-180 ft
Elevation112 ft
Report Wrong Elevation
Raw Report
METAR NZCH 190800Z AUTO 04005KT 9999 NCD 13/09 Q1020 NOSIG=

Extra information for NZCH:More info

Metar Taf Metar & Taf Last 4 Metars F.Rules Stats Wind Profile Meteogram Temp Stats Airport Information Weather charts Add Link Nearby VenuesMetar ALERT Operation Metar Decoded Social comments